sensor_id;sensor_type;location;lat;lon;timestamp;P1;durP1;ratioP1;P2;durP2;ratioP2
10446;SDS011;5271;44.422;26.092;2023-03-12T00:02:01;1.10;;;1.10;;
10446;SDS011;5271;44.422;26.092;2023-03-12T00:04:27;1.20;;;1.20;;
10446;SDS011;5271;44.422;26.092;2023-03-12T00:06:56;1.10;;;1.10;;
10446;SDS011;5271;44.422;26.092;2023-03-12T00:09:24;1.30;;;1.30;;
10446;SDS011;5271;44.422;26.092;2023-03-12T00:11:51;1.20;;;1.20;;
10446;SDS011;5271;44.422;26.092;2023-03-12T00:14:18;1.20;;;1.20;;
10446;SDS011;5271;44.422;26.092;2023-03-12T00:16:45;1.10;;;1.10;;
10446;SDS011;5271;44.422;26.092;2023-03-12T00:19:12;1.20;;;1.20;;
10446;SDS011;5271;44.422;26.092;2023-03-12T00:21:39;1.20;;;1.20;;
10446;SDS011;5271;44.422;26.092;2023-03-12T00:24:06;1.20;;;1.20;;
10446;SDS011;5271;44.422;26.092;2023-03-12T00:26:34;1.20;;;1.20;;
10446;SDS011;5271;44.422;26.092;2023-03-12T00:29:01;1.10;;;1.10;;
10446;SDS011;5271;44.422;26.092;2023-03-12T00:31:29;1.30;;;1.30;;
10446;SDS011;5271;44.422;26.092;2023-03-12T00:33:57;1.20;;;1.20;;
10446;SDS011;5271;44.422;26.092;2023-03-12T00:36:26;1.20;;;1.20;;
10446;SDS011;5271;44.422;26.092;2023-03-12T00:38:55;1.23;;;1.23;;
10446;SDS011;5271;44.422;26.092;2023-03-12T00:41:23;1.13;;;1.13;;
10446;SDS011;5271;44.422;26.092;2023-03-12T00:43:52;1.30;;;1.30;;
10446;SDS011;5271;44.422;26.092;2023-03-12T00:46:19;1.20;;;1.20;;
10446;SDS011;5271;44.422;26.092;2023-03-12T00:48:46;1.20;;;1.20;;
10446;SDS011;5271;44.422;26.092;2023-03-12T00:51:13;1.20;;;1.20;;
10446;SDS011;5271;44.422;26.092;2023-03-12T00:53:40;1.20;;;1.20;;
10446;SDS011;5271;44.422;26.092;2023-03-12T00:56:07;1.30;;;1.30;;
10446;SDS011;5271;44.422;26.092;2023-03-12T00:58:34;1.20;;;1.20;;
10446;SDS011;5271;44.422;26.092;2023-03-12T01:01:03;1.30;;;1.30;;
10446;SDS011;5271;44.422;26.092;2023-03-12T01:03:30;1.30;;;1.30;;
10446;SDS011;5271;44.422;26.092;2023-03-12T01:05:57;1.20;;;1.20;;
10446;SDS011;5271;44.422;26.092;2023-03-12T01:08:24;1.20;;;1.20;;
10446;SDS011;5271;44.422;26.092;2023-03-12T01:10:51;1.20;;;1.20;;
10446;SDS011;5271;44.422;26.092;2023-03-12T01:13:18;1.20;;;1.20;;
10446;SDS011;5271;44.422;26.092;2023-03-12T01:15:44;1.20;;;1.20;;
10446;SDS011;5271;44.422;26.092;2023-03-12T01:18:13;1.20;;;1.20;;
10446;SDS011;5271;44.422;26.092;2023-03-12T01:20:40;1.20;;;1.20;;
10446;SDS011;5271;44.422;26.092;2023-03-12T01:23:07;1.30;;;1.30;;
10446;SDS011;5271;44.422;26.092;2023-03-12T01:25:34;1.20;;;1.20;;
10446;SDS011;5271;44.422;26.092;2023-03-12T01:28:01;1.30;;;1.30;;
10446;SDS011;5271;44.422;26.092;2023-03-12T01:30:28;1.20;;;1.20;;
10446;SDS011;5271;44.422;26.092;2023-03-12T01:32:56;1.20;;;1.20;;
10446;SDS011;5271;44.422;26.092;2023-03-12T01:35:24;1.20;;;1.20;;
10446;SDS011;5271;44.422;26.092;2023-03-12T01:37:51;1.20;;;1.20;;
10446;SDS011;5271;44.422;26.092;2023-03-12T01:40:20;1.20;;;1.20;;
10446;SDS011;5271;44.422;26.092;2023-03-12T01:42:52;1.20;;;1.20;;
10446;SDS011;5271;44.422;26.092;2023-03-12T01:48:27;1.20;;;1.20;;
10446;SDS011;5271;44.422;26.092;2023-03-12T01:51:00;1.20;;;1.20;;
10446;SDS011;5271;44.422;26.092;2023-03-12T01:53:27;1.20;;;1.20;;
10446;SDS011;5271;44.422;26.092;2023-03-12T01:55:55;1.13;;;1.13;;
10446;SDS011;5271;44.422;26.092;2023-03-12T01:58:23;1.17;;;1.17;;
10446;SDS011;5271;44.422;26.092;2023-03-12T02:00:52;1.20;;;1.20;;
10446;SDS011;5271;44.422;26.092;2023-03-12T02:03:20;1.20;;;1.20;;
10446;SDS011;5271;44.422;26.092;2023-03-12T02:05:50;1.20;;;1.20;;
10446;SDS011;5271;44.422;26.092;2023-03-12T02:08:20;1.20;;;1.20;;
10446;SDS011;5271;44.422;26.092;2023-03-12T02:10:49;1.20;;;1.20;;
10446;SDS011;5271;44.422;26.092;2023-03-12T02:13:16;1.20;;;1.20;;
10446;SDS011;5271;44.422;26.092;2023-03-12T02:15:43;1.20;;;1.20;;
10446;SDS011;5271;44.422;26.092;2023-03-12T02:18:10;1.10;;;1.10;;
10446;SDS011;5271;44.422;26.092;2023-03-12T02:20:41;1.20;;;1.20;;
10446;SDS011;5271;44.422;26.092;2023-03-12T02:23:15;1.20;;;1.20;;
10446;SDS011;5271;44.422;26.092;2023-03-12T02:25:53;1.20;;;1.20;;
10446;SDS011;5271;44.422;26.092;2023-03-12T02:28:21;1.20;;;1.20;;
10446;SDS011;5271;44.422;26.092;2023-03-12T02:30:51;1.20;;;1.20;;
10446;SDS011;5271;44.422;26.092;2023-03-12T02:33:22;1.20;;;1.20;;
10446;SDS011;5271;44.422;26.092;2023-03-12T02:35:50;1.20;;;1.20;;
10446;SDS011;5271;44.422;26.092;2023-03-12T02:38:38;1.20;;;1.20;;
10446;SDS011;5271;44.422;26.092;2023-03-12T02:41:16;1.10;;;1.10;;
10446;SDS011;5271;44.422;26.092;2023-03-12T02:43:46;1.23;;;1.23;;
10446;SDS011;5271;44.422;26.092;2023-03-12T02:46:17;1.20;;;1.20;;
10446;SDS011;5271;44.422;26.092;2023-03-12T02:48:43;1.20;;;1.20;;
10446;SDS011;5271;44.422;26.092;2023-03-12T02:51:10;1.20;;;1.20;;
10446;SDS011;5271;44.422;26.092;2023-03-12T02:53:37;1.20;;;1.20;;
10446;SDS011;5271;44.422;26.092;2023-03-12T02:56:05;1.20;;;1.20;;
10446;SDS011;5271;44.422;26.092;2023-03-12T02:58:33;1.20;;;1.20;;
10446;SDS011;5271;44.422;26.092;2023-03-12T03:01:00;1.23;;;1.23;;
10446;SDS011;5271;44.422;26.092;2023-03-12T03:03:27;1.20;;;1.20;;
10446;SDS011;5271;44.422;26.092;2023-03-12T03:05:54;1.20;;;1.20;;
10446;SDS011;5271;44.422;26.092;2023-03-12T03:08:20;1.20;;;1.20;;
10446;SDS011;5271;44.422;26.092;2023-03-12T03:10:49;1.20;;;1.20;;
10446;SDS011;5271;44.422;26.092;2023-03-12T03:13:16;1.10;;;1.10;;
10446;SDS011;5271;44.422;26.092;2023-03-12T03:15:44;1.20;;;1.20;;
10446;SDS011;5271;44.422;26.092;2023-03-12T03:18:11;1.23;;;1.23;;
10446;SDS011;5271;44.422;26.092;2023-03-12T03:20:38;1.23;;;1.23;;
10446;SDS011;5271;44.422;26.092;2023-03-12T03:23:05;1.20;;;1.20;;
10446;SDS011;5271;44.422;26.092;2023-03-12T03:25:32;1.20;;;1.20;;
10446;SDS011;5271;44.422;26.092;2023-03-12T03:27:59;1.30;;;1.30;;
10446;SDS011;5271;44.422;26.092;2023-03-12T03:30:26;1.20;;;1.20;;
10446;SDS011;5271;44.422;26.092;2023-03-12T03:32:54;1.13;;;1.13;;
10446;SDS011;5271;44.422;26.092;2023-03-12T03:35:21;1.20;;;1.20;;
10446;SDS011;5271;44.422;26.092;2023-03-12T03:37:48;1.20;;;1.20;;
10446;SDS011;5271;44.422;26.092;2023-03-12T03:40:15;1.20;;;1.20;;
10446;SDS011;5271;44.422;26.092;2023-03-12T03:42:42;1.30;;;1.30;;
10446;SDS011;5271;44.422;26.092;2023-03-12T03:45:09;1.20;;;1.20;;
10446;SDS011;5271;44.422;26.092;2023-03-12T03:47:36;1.20;;;1.20;;
10446;SDS011;5271;44.422;26.092;2023-03-12T03:50:05;1.20;;;1.20;;
10446;SDS011;5271;44.422;26.092;2023-03-12T03:52:32;1.27;;;1.27;;
10446;SDS011;5271;44.422;26.092;2023-03-12T03:54:59;1.20;;;1.20;;
10446;SDS011;5271;44.422;26.092;2023-03-12T03:57:26;1.20;;;1.20;;
10446;SDS011;5271;44.422;26.092;2023-03-12T03:59:53;1.20;;;1.20;;
10446;SDS011;5271;44.422;26.092;2023-03-12T04:02:23;1.20;;;1.20;;
10446;SDS011;5271;44.422;26.092;2023-03-12T04:04:50;1.23;;;1.23;;
10446;SDS011;5271;44.422;26.092;2023-03-12T04:07:18;1.20;;;1.20;;
10446;SDS011;5271;44.422;26.092;2023-03-12T04:09:46;1.30;;;1.30;;
10446;SDS011;5271;44.422;26.092;2023-03-12T04:12:13;1.30;;;1.30;;
10446;SDS011;5271;44.422;26.092;2023-03-12T04:14:40;1.30;;;1.30;;
10446;SDS011;5271;44.422;26.092;2023-03-12T04:17:07;1.20;;;1.20;;
10446;SDS011;5271;44.422;26.092;2023-03-12T04:19:35;1.30;;;1.30;;
10446;SDS011;5271;44.422;26.092;2023-03-12T04:22:02;1.30;;;1.30;;
10446;SDS011;5271;44.422;26.092;2023-03-12T04:24:30;1.37;;;1.37;;
10446;SDS011;5271;44.422;26.092;2023-03-12T04:26:57;1.30;;;1.30;;
10446;SDS011;5271;44.422;26.092;2023-03-12T04:29:25;1.20;;;1.20;;
10446;SDS011;5271;44.422;26.092;2023-03-12T04:31:52;1.20;;;1.20;;
10446;SDS011;5271;44.422;26.092;2023-03-12T04:34:19;1.20;;;1.20;;
10446;SDS011;5271;44.422;26.092;2023-03-12T04:36:46;1.30;;;1.30;;
10446;SDS011;5271;44.422;26.092;2023-03-12T04:39:13;1.20;;;1.20;;
10446;SDS011;5271;44.422;26.092;2023-03-12T04:41:44;1.20;;;1.20;;
10446;SDS011;5271;44.422;26.092;2023-03-12T04:44:11;1.23;;;1.23;;
10446;SDS011;5271;44.422;26.092;2023-03-12T04:46:38;1.10;;;1.10;;
10446;SDS011;5271;44.422;26.092;2023-03-12T04:49:06;1.20;;;1.20;;
10446;SDS011;5271;44.422;26.092;2023-03-12T04:51:33;1.20;;;1.20;;
10446;SDS011;5271;44.422;26.092;2023-03-12T04:54:00;1.20;;;1.20;;
10446;SDS011;5271;44.422;26.092;2023-03-12T04:56:26;1.20;;;1.20;;
10446;SDS011;5271;44.422;26.092;2023-03-12T04:58:55;1.20;;;1.20;;
10446;SDS011;5271;44.422;26.092;2023-03-12T05:01:23;1.20;;;1.20;;
10446;SDS011;5271;44.422;26.092;2023-03-12T05:03:51;1.30;;;1.30;;
10446;SDS011;5271;44.422;26.092;2023-03-12T05:06:19;1.20;;;1.20;;
10446;SDS011;5271;44.422;26.092;2023-03-12T05:08:47;1.30;;;1.30;;
10446;SDS011;5271;44.422;26.092;2023-03-12T05:11:14;1.10;;;1.10;;
10446;SDS011;5271;44.422;26.092;2023-03-12T05:13:42;1.20;;;1.20;;
10446;SDS011;5271;44.422;26.092;2023-03-12T05:16:10;1.20;;;1.20;;
10446;SDS011;5271;44.422;26.092;2023-03-12T05:18:38;1.20;;;1.20;;
10446;SDS011;5271;44.422;26.092;2023-03-12T05:21:05;1.20;;;1.20;;
10446;SDS011;5271;44.422;26.092;2023-03-12T05:23:34;1.20;;;1.20;;
10446;SDS011;5271;44.422;26.092;2023-03-12T05:26:03;1.20;;;1.20;;
10446;SDS011;5271;44.422;26.092;2023-03-12T05:28:30;1.20;;;1.20;;
10446;SDS011;5271;44.422;26.092;2023-03-12T05:30:57;1.20;;;1.20;;
10446;SDS011;5271;44.422;26.092;2023-03-12T05:33:27;1.20;;;1.20;;
10446;SDS011;5271;44.422;26.092;2023-03-12T05:35:54;1.20;;;1.20;;
10446;SDS011;5271;44.422;26.092;2023-03-12T05:38:21;1.10;;;1.10;;
10446;SDS011;5271;44.422;26.092;2023-03-12T05:40:50;1.20;;;1.20;;
10446;SDS011;5271;44.422;26.092;2023-03-12T05:43:18;1.20;;;1.20;;
10446;SDS011;5271;44.422;26.092;2023-03-12T05:45:45;1.20;;;1.20;;
10446;SDS011;5271;44.422;26.092;2023-03-12T05:48:12;1.20;;;1.20;;
10446;SDS011;5271;44.422;26.092;2023-03-12T05:50:41;1.20;;;1.20;;
10446;SDS011;5271;44.422;26.092;2023-03-12T05:53:08;1.20;;;1.20;;
10446;SDS011;5271;44.422;26.092;2023-03-12T05:55:35;1.27;;;1.27;;
10446;SDS011;5271;44.422;26.092;2023-03-12T05:58:04;1.20;;;1.20;;
10446;SDS011;5271;44.422;26.092;2023-03-12T06:00:32;1.20;;;1.20;;
10446;SDS011;5271;44.422;26.092;2023-03-12T06:03:02;1.20;;;1.20;;
10446;SDS011;5271;44.422;26.092;2023-03-12T06:05:29;1.20;;;1.20;;
10446;SDS011;5271;44.422;26.092;2023-03-12T06:07:57;1.20;;;1.20;;
10446;SDS011;5271;44.422;26.092;2023-03-12T06:10:24;1.20;;;1.20;;
10446;SDS011;5271;44.422;26.092;2023-03-12T06:12:51;1.20;;;1.20;;
10446;SDS011;5271;44.422;26.092;2023-03-12T06:15:19;1.20;;;1.20;;
10446;SDS011;5271;44.422;26.092;2023-03-12T06:17:46;1.10;;;1.10;;
10446;SDS011;5271;44.422;26.092;2023-03-12T06:20:12;1.10;;;1.10;;
10446;SDS011;5271;44.422;26.092;2023-03-12T06:22:40;1.20;;;1.20;;
10446;SDS011;5271;44.422;26.092;2023-03-12T06:25:08;1.20;;;1.20;;
10446;SDS011;5271;44.422;26.092;2023-03-12T06:27:35;1.20;;;1.20;;
10446;SDS011;5271;44.422;26.092;2023-03-12T06:30:02;1.20;;;1.20;;
10446;SDS011;5271;44.422;26.092;2023-03-12T06:32:30;1.30;;;1.30;;
10446;SDS011;5271;44.422;26.092;2023-03-12T06:34:58;1.20;;;1.20;;
10446;SDS011;5271;44.422;26.092;2023-03-12T06:37:25;1.20;;;1.20;;
10446;SDS011;5271;44.422;26.092;2023-03-12T06:39:52;1.20;;;1.20;;
10446;SDS011;5271;44.422;26.092;2023-03-12T06:42:20;1.20;;;1.20;;
10446;SDS011;5271;44.422;26.092;2023-03-12T06:44:47;1.10;;;1.10;;
10446;SDS011;5271;44.422;26.092;2023-03-12T06:47:14;1.20;;;1.20;;
10446;SDS011;5271;44.422;26.092;2023-03-12T06:49:41;1.20;;;1.20;;
10446;SDS011;5271;44.422;26.092;2023-03-12T06:52:09;1.20;;;1.20;;
10446;SDS011;5271;44.422;26.092;2023-03-12T06:54:36;1.30;;;1.30;;
10446;SDS011;5271;44.422;26.092;2023-03-12T06:57:03;1.20;;;1.20;;
10446;SDS011;5271;44.422;26.092;2023-03-12T06:59:31;1.20;;;1.20;;
10446;SDS011;5271;44.422;26.092;2023-03-12T07:01:58;1.20;;;1.20;;
10446;SDS011;5271;44.422;26.092;2023-03-12T07:04:25;1.20;;;1.20;;
10446;SDS011;5271;44.422;26.092;2023-03-12T07:06:51;1.20;;;1.20;;
10446;SDS011;5271;44.422;26.092;2023-03-12T07:09:19;1.10;;;1.10;;
10446;SDS011;5271;44.422;26.092;2023-03-12T07:11:46;1.20;;;1.20;;
10446;SDS011;5271;44.422;26.092;2023-03-12T07:14:13;1.20;;;1.20;;
10446;SDS011;5271;44.422;26.092;2023-03-12T07:16:41;1.20;;;1.20;;
10446;SDS011;5271;44.422;26.092;2023-03-12T07:19:08;1.20;;;1.20;;
10446;SDS011;5271;44.422;26.092;2023-03-12T07:21:35;1.20;;;1.20;;
10446;SDS011;5271;44.422;26.092;2023-03-12T07:24:01;1.17;;;1.17;;
10446;SDS011;5271;44.422;26.092;2023-03-12T07:26:31;1.10;;;1.10;;
10446;SDS011;5271;44.422;26.092;2023-03-12T07:28:59;1.20;;;1.20;;
10446;SDS011;5271;44.422;26.092;2023-03-12T07:31:26;1.20;;;1.20;;
10446;SDS011;5271;44.422;26.092;2023-03-12T07:33:54;1.20;;;1.20;;
10446;SDS011;5271;44.422;26.092;2023-03-12T07:36:21;1.20;;;1.20;;
10446;SDS011;5271;44.422;26.092;2023-03-12T07:38:47;1.13;;;1.13;;
10446;SDS011;5271;44.422;26.092;2023-03-12T07:41:14;1.20;;;1.20;;
10446;SDS011;5271;44.422;26.092;2023-03-12T07:43:41;1.20;;;1.20;;
10446;SDS011;5271;44.422;26.092;2023-03-12T07:46:08;1.10;;;1.10;;
10446;SDS011;5271;44.422;26.092;2023-03-12T07:48:35;1.13;;;1.13;;
10446;SDS011;5271;44.422;26.092;2023-03-12T07:51:04;1.10;;;1.10;;
10446;SDS011;5271;44.422;26.092;2023-03-12T07:53:31;1.27;;;1.27;;
10446;SDS011;5271;44.422;26.092;2023-03-12T07:55:58;1.20;;;1.20;;
10446;SDS011;5271;44.422;26.092;2023-03-12T07:58:25;1.20;;;1.20;;
10446;SDS011;5271;44.422;26.092;2023-03-12T08:00:53;1.13;;;1.13;;
10446;SDS011;5271;44.422;26.092;2023-03-12T08:03:20;1.17;;;1.17;;
10446;SDS011;5271;44.422;26.092;2023-03-12T08:05:54;1.10;;;1.10;;
10446;SDS011;5271;44.422;26.092;2023-03-12T08:08:26;1.20;;;1.20;;
10446;SDS011;5271;44.422;26.092;2023-03-12T08:10:55;1.17;;;1.17;;
10446;SDS011;5271;44.422;26.092;2023-03-12T08:13:22;1.10;;;1.10;;
10446;SDS011;5271;44.422;26.092;2023-03-12T08:15:49;1.10;;;1.10;;
10446;SDS011;5271;44.422;26.092;2023-03-12T08:18:17;1.10;;;1.10;;
10446;SDS011;5271;44.422;26.092;2023-03-12T08:20:44;1.10;;;1.10;;
10446;SDS011;5271;44.422;26.092;2023-03-12T08:23:14;1.10;;;1.10;;
10446;SDS011;5271;44.422;26.092;2023-03-12T08:25:44;1.10;;;1.10;;
10446;SDS011;5271;44.422;26.092;2023-03-12T08:28:12;1.20;;;1.20;;
10446;SDS011;5271;44.422;26.092;2023-03-12T08:30:43;1.10;;;1.10;;
10446;SDS011;5271;44.422;26.092;2023-03-12T08:33:11;1.03;;;1.03;;
10446;SDS011;5271;44.422;26.092;2023-03-12T08:35:38;1.10;;;1.10;;
10446;SDS011;5271;44.422;26.092;2023-03-12T08:38:05;1.10;;;1.10;;
10446;SDS011;5271;44.422;26.092;2023-03-12T08:40:32;1.10;;;1.10;;
10446;SDS011;5271;44.422;26.092;2023-03-12T08:43:00;1.10;;;1.10;;
10446;SDS011;5271;44.422;26.092;2023-03-12T08:45:27;1.10;;;1.10;;
10446;SDS011;5271;44.422;26.092;2023-03-12T08:47:54;1.17;;;1.17;;
10446;SDS011;5271;44.422;26.092;2023-03-12T08:50:20;1.10;;;1.10;;
10446;SDS011;5271;44.422;26.092;2023-03-12T08:52:50;1.20;;;1.20;;
10446;SDS011;5271;44.422;26.092;2023-03-12T08:55:16;1.20;;;1.20;;
10446;SDS011;5271;44.422;26.092;2023-03-12T08:57:43;1.10;;;1.10;;
10446;SDS011;5271;44.422;26.092;2023-03-12T09:00:12;1.20;;;1.20;;
10446;SDS011;5271;44.422;26.092;2023-03-12T09:02:42;1.10;;;1.10;;
10446;SDS011;5271;44.422;26.092;2023-03-12T09:05:09;1.30;;;1.30;;
10446;SDS011;5271;44.422;26.092;2023-03-12T09:07:36;1.20;;;1.20;;
10446;SDS011;5271;44.422;26.092;2023-03-12T09:10:04;1.20;;;1.20;;
10446;SDS011;5271;44.422;26.092;2023-03-12T09:12:31;1.17;;;1.17;;
10446;SDS011;5271;44.422;26.092;2023-03-12T09:14:58;1.10;;;1.10;;
10446;SDS011;5271;44.422;26.092;2023-03-12T09:17:26;1.20;;;1.20;;
10446;SDS011;5271;44.422;26.092;2023-03-12T09:19:54;1.20;;;1.20;;
10446;SDS011;5271;44.422;26.092;2023-03-12T09:22:20;1.20;;;1.20;;
10446;SDS011;5271;44.422;26.092;2023-03-12T09:24:47;1.20;;;1.20;;
10446;SDS011;5271;44.422;26.092;2023-03-12T09:27:14;1.17;;;1.17;;
10446;SDS011;5271;44.422;26.092;2023-03-12T09:29:41;1.10;;;1.10;;
10446;SDS011;5271;44.422;26.092;2023-03-12T09:32:08;1.10;;;1.10;;
10446;SDS011;5271;44.422;26.092;2023-03-12T09:34:36;1.10;;;1.10;;
10446;SDS011;5271;44.422;26.092;2023-03-12T09:37:03;1.07;;;1.07;;
10446;SDS011;5271;44.422;26.092;2023-03-12T09:39:30;1.10;;;1.10;;
10446;SDS011;5271;44.422;26.092;2023-03-12T09:41:57;1.00;;;1.00;;
10446;SDS011;5271;44.422;26.092;2023-03-12T09:44:25;1.00;;;1.00;;
10446;SDS011;5271;44.422;26.092;2023-03-12T09:46:59;1.00;;;1.00;;
10446;SDS011;5271;44.422;26.092;2023-03-12T09:49:30;1.00;;;1.00;;
10446;SDS011;5271;44.422;26.092;2023-03-12T09:52:01;1.00;;;1.00;;
10446;SDS011;5271;44.422;26.092;2023-03-12T09:54:35;1.00;;;1.00;;
10446;SDS011;5271;44.422;26.092;2023-03-12T09:57:08;1.00;;;1.00;;
10446;SDS011;5271;44.422;26.092;2023-03-12T09:59:39;1.00;;;1.00;;
10446;SDS011;5271;44.422;26.092;2023-03-12T10:02:12;1.00;;;1.00;;
10446;SDS011;5271;44.422;26.092;2023-03-12T10:04:55;1.00;;;1.00;;
10446;SDS011;5271;44.422;26.092;2023-03-12T10:07:29;1.00;;;1.00;;
10446;SDS011;5271;44.422;26.092;2023-03-12T10:10:02;0.90;;;0.90;;
10446;SDS011;5271;44.422;26.092;2023-03-12T10:12:42;1.00;;;1.00;;
10446;SDS011;5271;44.422;26.092;2023-03-12T10:15:23;1.00;;;1.00;;
10446;SDS011;5271;44.422;26.092;2023-03-12T10:18:01;1.00;;;1.00;;
10446;SDS011;5271;44.422;26.092;2023-03-12T10:20:55;1.00;;;1.00;;
10446;SDS011;5271;44.422;26.092;2023-03-12T10:23:45;1.00;;;1.00;;
10446;SDS011;5271;44.422;26.092;2023-03-12T10:26:21;1.00;;;1.00;;
10446;SDS011;5271;44.422;26.092;2023-03-12T10:28:50;1.00;;;1.00;;
10446;SDS011;5271;44.422;26.092;2023-03-12T10:31:21;1.00;;;1.00;;
10446;SDS011;5271;44.422;26.092;2023-03-12T10:33:52;0.93;;;0.93;;
10446;SDS011;5271;44.422;26.092;2023-03-12T10:36:22;0.90;;;0.90;;
10446;SDS011;5271;44.422;26.092;2023-03-12T10:38:52;0.90;;;0.90;;
10446;SDS011;5271;44.422;26.092;2023-03-12T10:41:19;1.00;;;1.00;;
10446;SDS011;5271;44.422;26.092;2023-03-12T10:43:50;0.90;;;0.90;;
10446;SDS011;5271;44.422;26.092;2023-03-12T10:46:28;0.90;;;0.90;;
10446;SDS011;5271;44.422;26.092;2023-03-12T10:49:24;0.90;;;0.90;;
10446;SDS011;5271;44.422;26.092;2023-03-12T10:51:55;0.90;;;0.90;;
10446;SDS011;5271;44.422;26.092;2023-03-12T10:54:27;0.90;;;0.90;;
10446;SDS011;5271;44.422;26.092;2023-03-12T10:56:56;0.80;;;0.80;;
10446;SDS011;5271;44.422;26.092;2023-03-12T10:59:25;0.90;;;0.90;;
10446;SDS011;5271;44.422;26.092;2023-03-12T11:01:55;0.87;;;0.87;;
10446;SDS011;5271;44.422;26.092;2023-03-12T11:04:23;0.90;;;0.90;;
10446;SDS011;5271;44.422;26.092;2023-03-12T11:07:04;0.83;;;0.83;;
10446;SDS011;5271;44.422;26.092;2023-03-12T11:09:45;0.90;;;0.90;;
10446;SDS011;5271;44.422;26.092;2023-03-12T11:12:29;1.00;;;1.00;;
10446;SDS011;5271;44.422;26.092;2023-03-12T11:14:56;0.93;;;0.93;;
10446;SDS011;5271;44.422;26.092;2023-03-12T11:17:24;0.90;;;0.90;;
10446;SDS011;5271;44.422;26.092;2023-03-12T11:19:52;0.90;;;0.90;;
10446;SDS011;5271;44.422;26.092;2023-03-12T11:22:26;0.90;;;0.90;;
10446;SDS011;5271;44.422;26.092;2023-03-12T11:24:57;0.90;;;0.90;;
10446;SDS011;5271;44.422;26.092;2023-03-12T11:27:29;0.90;;;0.90;;
10446;SDS011;5271;44.422;26.092;2023-03-12T11:30:04;0.90;;;0.90;;
10446;SDS011;5271;44.422;26.092;2023-03-12T11:32:33;0.80;;;0.80;;
10446;SDS011;5271;44.422;26.092;2023-03-12T11:35:08;0.90;;;0.90;;
10446;SDS011;5271;44.422;26.092;2023-03-12T11:37:40;0.80;;;0.80;;
10446;SDS011;5271;44.422;26.092;2023-03-12T11:40:23;0.90;;;0.90;;
10446;SDS011;5271;44.422;26.092;2023-03-12T11:43:04;0.80;;;0.80;;
10446;SDS011;5271;44.422;26.092;2023-03-12T11:45:53;0.90;;;0.90;;
10446;SDS011;5271;44.422;26.092;2023-03-12T11:48:32;0.90;;;0.90;;
10446;SDS011;5271;44.422;26.092;2023-03-12T11:51:12;0.97;;;0.97;;
10446;SDS011;5271;44.422;26.092;2023-03-12T11:53:56;0.80;;;0.80;;
10446;SDS011;5271;44.422;26.092;2023-03-12T11:56:42;0.90;;;0.90;;
10446;SDS011;5271;44.422;26.092;2023-03-12T11:59:13;0.90;;;0.90;;
10446;SDS011;5271;44.422;26.092;2023-03-12T12:02:03;0.80;;;0.80;;
10446;SDS011;5271;44.422;26.092;2023-03-12T12:04:51;0.70;;;0.70;;
10446;SDS011;5271;44.422;26.092;2023-03-12T12:07:41;0.80;;;0.80;;
10446;SDS011;5271;44.422;26.092;2023-03-12T12:10:21;0.80;;;0.80;;
10446;SDS011;5271;44.422;26.092;2023-03-12T12:12:56;0.80;;;0.80;;
10446;SDS011;5271;44.422;26.092;2023-03-12T12:15:33;0.80;;;0.80;;
10446;SDS011;5271;44.422;26.092;2023-03-12T12:18:08;0.80;;;0.80;;
10446;SDS011;5271;44.422;26.092;2023-03-12T12:20:55;0.80;;;0.80;;
10446;SDS011;5271;44.422;26.092;2023-03-12T12:23:30;0.80;;;0.80;;
10446;SDS011;5271;44.422;26.092;2023-03-12T12:26:07;0.80;;;0.80;;
10446;SDS011;5271;44.422;26.092;2023-03-12T12:28:48;0.80;;;0.80;;
10446;SDS011;5271;44.422;26.092;2023-03-12T12:31:40;0.90;;;0.90;;
10446;SDS011;5271;44.422;26.092;2023-03-12T12:37:15;0.87;;;0.87;;
10446;SDS011;5271;44.422;26.092;2023-03-12T12:39:47;0.90;;;0.90;;
10446;SDS011;5271;44.422;26.092;2023-03-12T12:42:19;0.90;;;0.90;;
10446;SDS011;5271;44.422;26.092;2023-03-12T12:44:52;0.80;;;0.80;;
10446;SDS011;5271;44.422;26.092;2023-03-12T12:47:25;0.90;;;0.90;;
10446;SDS011;5271;44.422;26.092;2023-03-12T12:50:00;0.90;;;0.90;;
10446;SDS011;5271;44.422;26.092;2023-03-12T12:52:28;0.90;;;0.90;;
10446;SDS011;5271;44.422;26.092;2023-03-12T12:54:57;0.83;;;0.83;;
10446;SDS011;5271;44.422;26.092;2023-03-12T12:57:34;0.87;;;0.87;;
10446;SDS011;5271;44.422;26.092;2023-03-12T13:00:13;0.80;;;0.80;;
10446;SDS011;5271;44.422;26.092;2023-03-12T13:02:48;0.90;;;0.90;;
10446;SDS011;5271;44.422;26.092;2023-03-12T13:05:18;0.90;;;0.90;;
10446;SDS011;5271;44.422;26.092;2023-03-12T13:07:47;0.90;;;0.90;;
10446;SDS011;5271;44.422;26.092;2023-03-12T13:10:37;0.90;;;0.90;;
10446;SDS011;5271;44.422;26.092;2023-03-12T13:13:08;0.90;;;0.90;;
10446;SDS011;5271;44.422;26.092;2023-03-12T13:15:40;1.00;;;1.00;;
10446;SDS011;5271;44.422;26.092;2023-03-12T13:18:08;0.90;;;0.90;;
10446;SDS011;5271;44.422;26.092;2023-03-12T13:20:46;1.00;;;1.00;;
10446;SDS011;5271;44.422;26.092;2023-03-12T13:23:35;1.00;;;1.00;;
10446;SDS011;5271;44.422;26.092;2023-03-12T13:26:13;1.00;;;1.00;;
10446;SDS011;5271;44.422;26.092;2023-03-12T13:28:56;0.90;;;0.90;;
10446;SDS011;5271;44.422;26.092;2023-03-12T13:31:38;0.80;;;0.80;;
10446;SDS011;5271;44.422;26.092;2023-03-12T13:36:57;0.90;;;0.90;;
10446;SDS011;5271;44.422;26.092;2023-03-12T13:39:29;0.90;;;0.90;;
10446;SDS011;5271;44.422;26.092;2023-03-12T13:41:57;0.90;;;0.90;;
10446;SDS011;5271;44.422;26.092;2023-03-12T13:44:29;0.90;;;0.90;;
10446;SDS011;5271;44.422;26.092;2023-03-12T13:47:03;0.80;;;0.80;;
10446;SDS011;5271;44.422;26.092;2023-03-12T13:49:43;0.90;;;0.90;;
10446;SDS011;5271;44.422;26.092;2023-03-12T13:52:19;0.97;;;0.97;;
10446;SDS011;5271;44.422;26.092;2023-03-12T13:54:49;0.90;;;0.90;;
10446;SDS011;5271;44.422;26.092;2023-03-12T13:57:33;0.90;;;0.90;;
10446;SDS011;5271;44.422;26.092;2023-03-12T14:00:06;0.80;;;0.80;;
10446;SDS011;5271;44.422;26.092;2023-03-12T14:02:44;0.80;;;0.80;;
10446;SDS011;5271;44.422;26.092;2023-03-12T14:05:16;0.90;;;0.90;;
10446;SDS011;5271;44.422;26.092;2023-03-12T14:10:46;0.90;;;0.90;;
10446;SDS011;5271;44.422;26.092;2023-03-12T14:13:26;0.87;;;0.87;;
10446;SDS011;5271;44.422;26.092;2023-03-12T14:16:00;0.70;;;0.70;;
10446;SDS011;5271;44.422;26.092;2023-03-12T14:18:33;0.90;;;0.90;;
10446;SDS011;5271;44.422;26.092;2023-03-12T14:21:06;0.80;;;0.80;;
10446;SDS011;5271;44.422;26.092;2023-03-12T14:23:36;0.80;;;0.80;;
10446;SDS011;5271;44.422;26.092;2023-03-12T14:26:05;0.87;;;0.87;;
10446;SDS011;5271;44.422;26.092;2023-03-12T14:31:05;0.80;;;0.80;;
10446;SDS011;5271;44.422;26.092;2023-03-12T14:33:40;0.90;;;0.90;;
10446;SDS011;5271;44.422;26.092;2023-03-12T14:36:15;0.80;;;0.80;;
10446;SDS011;5271;44.422;26.092;2023-03-12T14:38:46;0.80;;;0.80;;
10446;SDS011;5271;44.422;26.092;2023-03-12T14:41:14;0.80;;;0.80;;
10446;SDS011;5271;44.422;26.092;2023-03-12T14:43:45;0.80;;;0.80;;
10446;SDS011;5271;44.422;26.092;2023-03-12T14:46:16;0.80;;;0.80;;
10446;SDS011;5271;44.422;26.092;2023-03-12T14:48:47;0.90;;;0.90;;
10446;SDS011;5271;44.422;26.092;2023-03-12T14:51:18;0.83;;;0.83;;
10446;SDS011;5271;44.422;26.092;2023-03-12T14:53:47;0.80;;;0.80;;
10446;SDS011;5271;44.422;26.092;2023-03-12T14:56:21;0.80;;;0.80;;
10446;SDS011;5271;44.422;26.092;2023-03-12T14:58:52;0.80;;;0.80;;
10446;SDS011;5271;44.422;26.092;2023-03-12T15:01:20;0.70;;;0.70;;
10446;SDS011;5271;44.422;26.092;2023-03-12T15:03:50;0.70;;;0.70;;
10446;SDS011;5271;44.422;26.092;2023-03-12T15:06:20;0.80;;;0.80;;
10446;SDS011;5271;44.422;26.092;2023-03-12T15:08:53;0.80;;;0.80;;
10446;SDS011;5271;44.422;26.092;2023-03-12T15:11:21;0.70;;;0.70;;
10446;SDS011;5271;44.422;26.092;2023-03-12T15:13:50;0.80;;;0.80;;
10446;SDS011;5271;44.422;26.092;2023-03-12T15:16:18;0.70;;;0.70;;
10446;SDS011;5271;44.422;26.092;2023-03-12T15:18:46;0.80;;;0.80;;
10446;SDS011;5271;44.422;26.092;2023-03-12T15:21:15;0.73;;;0.73;;